TAF KLYH
KLYH 090520Z 0906/1006 00000KT P6SM SKC FM091600 17005KT P6SM OVC250 FM092300 18004KT P6SM SCT200=
METAR KLYH
WC KLYH
WS KLYH
WV KLYH